createdAt,value
2019-02-23T00:00:51.765Z,84.59
2019-02-23T00:01:51.926Z,84.31
2019-02-23T00:02:51.944Z,84.41
2019-02-23T00:03:52.027Z,84.78
2019-02-23T00:04:52.117Z,84.59
2019-02-23T00:05:52.202Z,84.78
2019-02-23T00:06:52.290Z,84.50
2019-02-23T00:07:52.379Z,84.59
2019-02-23T00:08:52.467Z,84.41
2019-02-23T00:09:52.554Z,84.41
2019-02-23T00:10:52.644Z,84.78
2019-02-23T00:11:52.769Z,84.59
2019-02-23T00:12:52.808Z,84.64
2019-02-23T00:13:52.900Z,84.78
2019-02-23T00:14:52.988Z,84.88
2019-02-23T00:15:53.077Z,84.98
2019-02-23T00:16:53.164Z,84.50
2019-02-23T00:17:53.257Z,84.59
2019-02-23T00:18:53.347Z,84.98
2019-02-23T00:19:53.432Z,84.69
2019-02-23T00:20:53.521Z,84.88
2019-02-23T00:21:53.608Z,84.50
2019-02-23T00:22:53.697Z,84.41
2019-02-23T00:23:53.787Z,84.88
2019-02-23T00:24:53.871Z,84.88
2019-02-23T00:25:53.960Z,84.98
2019-02-23T00:26:54.045Z,85.03
2019-02-23T00:27:54.140Z,85.26
2019-02-23T00:28:54.225Z,85.36
2019-02-23T00:29:54.313Z,84.65
2019-02-23T00:30:54.420Z,85.31
2019-02-23T00:31:54.513Z,84.94
2019-02-23T00:32:54.593Z,84.74
2019-02-23T00:33:54.680Z,84.94
2019-02-23T00:34:54.767Z,85.13
2019-02-23T00:35:54.856Z,84.55
2019-02-23T00:36:54.944Z,84.55
2019-02-23T00:37:55.036Z,84.46
2019-02-23T00:38:55.122Z,84.94
2019-02-23T00:39:55.208Z,85.69
2019-02-23T00:40:55.296Z,85.78
2019-02-23T00:41:55.402Z,85.69
2019-02-23T00:42:55.473Z,85.60
2019-02-23T00:43:55.563Z,85.50
2019-02-23T00:44:55.648Z,85.50
2019-02-23T00:45:55.734Z,85.88
2019-02-23T00:46:55.820Z,85.69
2019-02-23T00:47:55.907Z,85.50
2019-02-23T00:48:55.998Z,85.13
2019-02-23T00:49:56.080Z,85.31
2019-02-23T00:50:56.168Z,85.31
2019-02-23T00:51:56.255Z,85.41
2019-02-23T00:52:56.343Z,85.31
2019-02-23T00:53:56.432Z,85.13
2019-02-23T00:54:56.518Z,85.31
2019-02-23T00:55:56.607Z,85.78
2019-02-23T00:56:56.691Z,85.50
2019-02-23T00:57:56.780Z,85.31
2019-02-23T00:58:56.866Z,84.65
2019-02-23T00:59:56.955Z,85.31
2019-02-23T01:00:57.041Z,85.31
2019-02-23T01:01:57.133Z,85.31
2019-02-23T01:02:57.219Z,85.13
2019-02-23T01:03:57.306Z,85.31
2019-02-23T01:04:57.391Z,85.60
2019-02-23T01:05:57.479Z,85.88
2019-02-23T01:06:57.568Z,85.50
2019-02-23T01:07:57.655Z,85.55
2019-02-23T01:08:57.743Z,85.36
2019-02-23T01:09:57.830Z,85.55
2019-02-23T01:10:58.545Z,85.27
2019-02-23T01:11:58.007Z,85.93
2019-02-23T01:12:58.092Z,86.60
2019-02-23T01:13:58.196Z,86.22
2019-02-23T01:14:58.283Z,86.41
2019-02-23T01:15:58.640Z,86.12
2019-02-23T01:16:58.456Z,86.22
2019-02-23T01:17:58.543Z,86.22
2019-02-23T01:18:58.634Z,85.55
2019-02-23T01:19:58.723Z,85.46
2019-02-23T01:20:58.805Z,85.46
2019-02-23T01:21:58.894Z,85.55
2019-02-23T01:22:58.980Z,85.65
2019-02-23T01:23:59.069Z,85.65
2019-02-23T01:24:59.157Z,85.46
2019-02-23T01:25:59.240Z,85.55
2019-02-23T01:26:59.331Z,85.46
2019-02-23T01:27:59.418Z,85.27
2019-02-23T01:28:59.511Z,85.36
2019-02-23T01:29:59.575Z,85.46
2019-02-23T01:30:59.665Z,85.65
2019-02-23T01:31:59.750Z,85.36
2019-02-23T01:32:59.839Z,85.36
2019-02-23T01:33:59.924Z,85.36
2019-02-23T01:35:00.012Z,85.65
2019-02-23T01:36:00.101Z,85.74
2019-02-23T01:37:00.188Z,85.65
2019-02-23T01:38:00.278Z,86.12
2019-02-23T01:39:00.368Z,86.69
2019-02-23T01:40:00.449Z,86.83
2019-02-23T01:41:00.539Z,87.40
2019-02-23T01:42:00.627Z,87.35
2019-02-23T01:43:00.708Z,87.35
2019-02-23T01:44:00.800Z,87.07
2019-02-23T01:45:00.880Z,87.35
2019-02-23T01:46:00.970Z,87.35
2019-02-23T01:47:01.057Z,87.40
2019-02-23T01:48:01.142Z,87.40
2019-02-23T01:49:01.231Z,87.40
2019-02-23T01:50:01.321Z,87.59
2019-02-23T01:51:01.412Z,87.69
2019-02-23T01:52:01.495Z,87.83
2019-02-23T01:53:01.584Z,87.69
2019-02-23T01:54:01.669Z,87.78
2019-02-23T01:55:01.757Z,87.92
2019-02-23T01:56:01.847Z,87.21
2019-02-23T01:57:01.933Z,87.02
2019-02-23T01:58:02.021Z,87.45
2019-02-23T01:59:02.106Z,86.98
2019-02-23T02:00:02.204Z,87.26
2019-02-23T02:01:02.287Z,87.07
2019-02-23T02:02:02.373Z,87.26
2019-02-23T02:03:02.459Z,87.12
2019-02-23T02:04:02.546Z,86.98
2019-02-23T02:05:02.632Z,86.83
2019-02-23T02:06:02.719Z,86.50
2019-02-23T02:07:02.808Z,87.07
2019-02-23T02:08:02.894Z,87.07
2019-02-23T02:09:02.983Z,86.83
2019-02-23T02:10:03.072Z,87.12
2019-02-23T02:11:03.158Z,87.21
2019-02-23T02:12:03.243Z,87.88
2019-02-23T02:13:03.330Z,88.73
2019-02-23T02:14:03.417Z,89.11
2019-02-23T02:15:03.507Z,89.11
2019-02-23T02:16:03.587Z,89.58
2019-02-23T02:17:03.682Z,89.39
2019-02-23T02:18:03.763Z,89.49
2019-02-23T02:19:03.849Z,89.49
2019-02-23T02:20:11.122Z,88.92
2019-02-23T02:21:04.024Z,89.11
2019-02-23T02:22:04.109Z,88.92
2019-02-23T02:23:04.198Z,88.82
2019-02-23T02:24:04.286Z,89.20
2019-02-23T02:25:04.372Z,88.64
2019-02-23T02:26:04.465Z,88.64
2019-02-23T02:27:04.545Z,88.64
2019-02-23T02:28:04.632Z,88.82
2019-02-23T02:29:04.718Z,88.82
2019-02-23T02:30:04.806Z,88.82
2019-02-23T02:31:04.909Z,89.01
2019-02-23T02:32:04.985Z,88.82
2019-02-23T02:33:05.063Z,88.73
2019-02-23T02:34:05.154Z,88.73
2019-02-23T02:35:05.243Z,88.45
2019-02-23T02:37:47.856Z,88.82
2019-02-23T02:38:47.942Z,88.92
2019-02-23T02:39:48.028Z,88.82
2019-02-23T02:40:48.113Z,89.01
2019-02-23T02:41:48.199Z,88.64
2019-02-23T02:42:48.285Z,88.82
2019-02-23T02:43:48.372Z,88.35
2019-02-23T02:44:48.460Z,88.35
2019-02-23T02:45:48.547Z,88.07
2019-02-23T02:46:48.634Z,87.88
2019-02-23T02:47:48.717Z,88.35
2019-02-23T02:48:48.805Z,88.07
2019-02-23T02:49:48.890Z,88.64
2019-02-23T02:50:48.997Z,88.26
2019-02-23T02:51:49.092Z,88.07
2019-02-23T02:52:49.171Z,88.21
2019-02-23T02:53:49.258Z,88.40
2019-02-23T02:54:49.343Z,89.25
2019-02-23T02:55:49.432Z,89.73
2019-02-23T02:56:49.517Z,89.63
2019-02-23T02:57:49.600Z,89.54
2019-02-23T02:58:49.687Z,89.44
2019-02-23T02:59:49.772Z,88.78
2019-02-23T03:00:49.862Z,88.78
2019-02-23T03:01:49.942Z,88.87
2019-02-23T03:02:50.020Z,88.97
2019-02-23T03:03:50.111Z,89.06
2019-02-23T03:04:50.193Z,89.54
2019-02-23T03:05:50.280Z,89.25
2019-02-23T03:06:50.369Z,89.82
2019-02-23T03:07:50.456Z,90.20
2019-02-23T03:08:50.541Z,90.30
2019-02-23T03:09:50.631Z,90.86
2019-02-23T03:10:50.711Z,90.58
2019-02-23T03:11:50.799Z,90.48
2019-02-23T03:12:50.888Z,90.20
2019-02-23T03:13:50.967Z,90.30
2019-02-23T03:14:51.045Z,90.20
2019-02-23T03:15:51.142Z,90.11
2019-02-23T03:16:51.227Z,89.92
2019-02-23T03:17:51.317Z,90.11
2019-02-23T03:18:51.399Z,89.92
2019-02-23T03:19:51.487Z,90.01
2019-02-23T03:20:51.570Z,89.82
2019-02-23T03:21:51.657Z,90.01
2019-02-23T03:22:51.742Z,89.44
2019-02-23T03:23:51.828Z,89.44
2019-02-23T03:24:51.912Z,89.73
2019-02-23T03:25:52.001Z,89.54
2019-02-23T03:26:52.091Z,89.73
2019-02-23T03:27:52.176Z,89.54
2019-02-23T03:28:52.267Z,89.25
2019-02-23T03:29:52.346Z,89.06
2019-02-23T03:30:52.434Z,89.73
2019-02-23T03:31:52.523Z,89.25
2019-02-23T03:32:52.612Z,90.11
2019-02-23T03:33:52.691Z,89.82
2019-02-23T03:34:52.776Z,90.58
2019-02-23T03:35:52.862Z,90.77
2019-02-23T03:36:52.947Z,90.58
2019-02-23T03:37:53.035Z,90.58
2019-02-23T03:38:53.118Z,90.58
2019-02-23T03:39:53.208Z,90.58
2019-02-23T03:40:53.290Z,90.86
2019-02-23T03:41:53.374Z,90.58
2019-02-23T03:42:53.463Z,90.48
2019-02-23T03:43:53.548Z,90.20
2019-02-23T03:44:53.640Z,89.92
2019-02-23T03:45:53.728Z,90.20
2019-02-23T03:46:53.814Z,89.92
2019-02-23T03:47:53.902Z,89.92
2019-02-23T03:48:53.989Z,90.01
2019-02-23T03:49:54.075Z,90.20
2019-02-23T03:50:54.165Z,90.20
2019-02-23T03:51:54.251Z,90.20
2019-02-23T03:52:54.338Z,90.20
2019-02-23T03:53:54.423Z,90.20
2019-02-23T03:54:54.508Z,89.92
2019-02-23T03:55:54.596Z,90.01
2019-02-23T03:56:54.679Z,89.92
2019-02-23T03:57:54.769Z,89.73
2019-02-23T03:58:54.856Z,90.20
2019-02-23T03:59:54.941Z,90.20
2019-02-23T04:00:55.026Z,90.20
2019-02-23T04:01:55.110Z,90.39
2019-02-23T04:02:55.196Z,90.30
2019-02-23T04:03:55.282Z,89.82
2019-02-23T04:04:55.368Z,90.30
2019-02-23T04:05:55.456Z,90.20
2019-02-23T04:06:55.541Z,90.01
2019-02-23T04:07:55.629Z,90.20
2019-02-23T04:08:55.714Z,89.06
2019-02-23T04:09:55.799Z,89.25
2019-02-23T04:10:55.884Z,89.63
2019-02-23T04:11:55.968Z,89.54
2019-02-23T04:12:56.053Z,89.44
2019-02-23T04:13:56.139Z,89.40
2019-02-23T04:14:56.221Z,89.97
2019-02-23T04:15:56.307Z,90.63
2019-02-23T04:16:56.391Z,91.29
2019-02-23T04:17:56.476Z,91.58
2019-02-23T04:18:56.574Z,91.86
2019-02-23T04:19:56.646Z,92.71
2019-02-23T04:21:01.698Z,91.86
2019-02-23T04:22:05.460Z,91.96
2019-02-23T04:22:56.924Z,92.14
2019-02-23T04:23:57.009Z,91.58
2019-02-23T04:24:57.093Z,91.77
2019-02-23T04:25:57.182Z,91.29
2019-02-23T04:26:57.267Z,91.20
2019-02-23T04:27:57.363Z,91.48
2019-02-23T04:28:57.437Z,91.77
2019-02-23T04:29:57.521Z,91.29
2019-02-23T04:30:57.612Z,91.67
2019-02-23T04:31:57.698Z,91.20
2019-02-23T04:32:57.782Z,91.20
2019-02-23T04:33:57.867Z,91.77
2019-02-23T04:34:57.951Z,91.67
2019-02-23T04:35:58.109Z,91.67
2019-02-23T04:36:58.122Z,91.86
2019-02-23T04:37:58.205Z,91.96
2019-02-23T04:38:58.292Z,91.67
2019-02-23T04:39:58.372Z,91.39
2019-02-23T04:40:58.463Z,90.72
2019-02-23T04:41:58.539Z,90.72
2019-02-23T04:42:58.624Z,90.72
2019-02-23T04:43:58.710Z,90.63
2019-02-23T04:44:58.797Z,90.44
2019-02-23T04:45:58.883Z,90.44
2019-02-23T04:46:58.968Z,90.06
2019-02-23T04:47:59.057Z,90.25
2019-02-23T04:48:59.139Z,89.97
2019-02-23T04:49:59.225Z,90.06
2019-02-23T04:50:59.308Z,90.16
2019-02-23T04:51:59.391Z,90.53
2019-02-23T04:52:59.475Z,90.53
2019-02-23T04:53:59.563Z,90.91
2019-02-23T04:54:59.647Z,90.72
2019-02-23T04:55:59.736Z,90.63
2019-02-23T04:56:59.819Z,90.72
2019-02-23T04:57:59.901Z,90.82
2019-02-23T04:58:59.994Z,90.63
2019-02-23T05:00:00.101Z,90.63
2019-02-23T05:01:00.174Z,90.53
2019-02-23T05:02:00.259Z,90.53
2019-02-23T05:03:00.337Z,90.34
2019-02-23T05:04:00.417Z,90.16
2019-02-23T05:05:00.500Z,89.69
2019-02-23T05:06:00.588Z,90.16
2019-02-23T05:07:00.670Z,89.97
2019-02-23T05:08:00.755Z,90.25
2019-02-23T05:09:00.905Z,89.97
2019-02-23T05:10:00.924Z,90.06
2019-02-23T05:11:01.008Z,90.34
2019-02-23T05:12:01.095Z,90.25
2019-02-23T05:13:01.182Z,90.63
2019-02-23T05:14:01.269Z,90.34
2019-02-23T05:15:01.356Z,90.34
2019-02-23T05:16:01.438Z,90.44
2019-02-23T05:17:01.526Z,90.53
2019-02-23T05:18:01.610Z,90.44
2019-02-23T05:19:01.692Z,90.06
2019-02-23T05:20:01.782Z,90.53
2019-02-23T05:21:01.872Z,90.63
2019-02-23T05:22:01.949Z,90.63
2019-02-23T05:23:02.044Z,90.63
2019-02-23T05:24:02.129Z,90.82
2019-02-23T05:25:02.211Z,90.63
2019-02-23T05:26:02.297Z,90.63
2019-02-23T05:27:02.385Z,90.53
2019-02-23T05:28:02.470Z,90.82
2019-02-23T05:29:02.557Z,90.72
2019-02-23T05:30:02.641Z,90.72
2019-02-23T05:31:02.728Z,91.77
2019-02-23T05:32:02.811Z,91.39
2019-02-23T05:33:02.898Z,92.43
2019-02-23T05:34:02.977Z,92.14
2019-02-23T05:35:03.074Z,92.05
2019-02-23T05:36:03.157Z,92.24
2019-02-23T05:37:03.243Z,91.58
2019-02-23T05:38:03.326Z,91.67
2019-02-23T05:39:03.412Z,91.67
2019-02-23T05:40:03.493Z,91.67
2019-02-23T05:41:03.590Z,91.48
2019-02-23T05:42:03.669Z,92.05
2019-02-23T05:43:03.759Z,92.33
2019-02-23T05:44:03.847Z,92.05
2019-02-23T05:45:03.938Z,91.86
2019-02-23T05:46:04.019Z,91.77
2019-02-23T05:47:04.103Z,91.48
2019-02-23T05:48:04.189Z,91.39
2019-02-23T05:49:04.274Z,91.58
2019-02-23T05:50:04.362Z,91.96
2019-02-23T05:51:04.449Z,91.86
2019-02-23T05:52:04.536Z,92.52
2019-02-23T05:53:04.624Z,92.61
2019-02-23T05:54:04.707Z,92.57
2019-02-23T05:55:04.792Z,93.13
2019-02-23T05:56:04.878Z,92.94
2019-02-23T05:57:04.963Z,93.89
2019-02-23T05:58:05.052Z,94.37
2019-02-23T05:59:05.130Z,93.89
2019-02-23T06:00:05.215Z,94.37
2019-02-23T06:01:05.301Z,94.08
2019-02-23T06:02:05.387Z,94.27
2019-02-23T06:03:05.473Z,94.08
2019-02-23T06:04:05.561Z,94.18
2019-02-23T06:05:05.648Z,94.46
2019-02-23T06:06:05.731Z,93.70
2019-02-23T06:07:05.816Z,93.89
2019-02-23T06:08:05.905Z,93.99
2019-02-23T06:09:05.988Z,93.32
2019-02-23T06:10:06.071Z,93.51
2019-02-23T06:11:06.163Z,92.76
2019-02-23T06:12:06.251Z,93.13
2019-02-23T06:13:06.334Z,92.66
2019-02-23T06:14:06.415Z,93.04
2019-02-23T06:15:06.504Z,93.32
2019-02-23T06:16:06.586Z,93.23
2019-02-23T06:17:06.677Z,93.32
2019-02-23T06:18:06.760Z,93.23
2019-02-23T06:19:06.846Z,93.47
2019-02-23T06:20:06.931Z,93.70
2019-02-23T06:21:07.019Z,93.51
2019-02-23T06:22:07.102Z,93.23
2019-02-23T06:23:07.190Z,93.18
2019-02-23T06:24:07.278Z,92.80
2019-02-23T06:25:07.363Z,93.13
2019-02-23T06:26:07.456Z,92.61
2019-02-23T06:27:07.534Z,92.71
2019-02-23T06:28:07.649Z,92.61
2019-02-23T06:29:07.721Z,92.80
2019-02-23T06:30:07.810Z,92.05
2019-02-23T06:31:07.896Z,92.43
2019-02-23T06:32:07.993Z,92.33
2019-02-23T06:33:08.085Z,92.38
2019-02-23T06:34:16.126Z,92.66
2019-02-23T06:35:08.249Z,92.57
2019-02-23T06:36:08.336Z,92.85
2019-02-23T06:37:08.421Z,92.76
2019-02-23T06:38:08.504Z,92.94
2019-02-23T06:39:08.597Z,92.94
2019-02-23T06:40:08.681Z,93.51
2019-02-23T06:41:08.769Z,93.32
2019-02-23T06:42:08.852Z,93.13
2019-02-23T06:43:08.939Z,93.04
2019-02-23T06:44:09.026Z,92.94
2019-02-23T06:45:09.122Z,93.37
2019-02-23T06:46:09.200Z,92.71
2019-02-23T06:47:09.285Z,92.99
2019-02-23T06:48:09.373Z,93.09
2019-02-23T06:49:09.457Z,93.18
2019-02-23T06:50:09.609Z,92.43
2019-02-23T06:51:09.612Z,92.43
2019-02-23T06:52:09.702Z,92.71
2019-02-23T06:53:09.783Z,91.96
2019-02-23T06:54:09.870Z,92.14
2019-02-23T06:55:09.957Z,91.77
2019-02-23T06:56:10.042Z,91.58
2019-02-23T06:57:10.130Z,91.48
2019-02-23T06:58:10.215Z,91.39
2019-02-23T06:59:10.303Z,91.39
2019-02-23T07:00:10.390Z,91.20
2019-02-23T07:01:10.475Z,91.67
2019-02-23T07:02:10.565Z,92.05
2019-02-23T07:03:10.648Z,91.86
2019-02-23T07:04:10.732Z,92.14
2019-02-23T07:05:10.880Z,92.14
2019-02-23T07:06:10.931Z,92.80
2019-02-23T07:07:10.992Z,92.71
2019-02-23T07:08:11.105Z,92.05
2019-02-23T07:09:11.164Z,92.24
2019-02-23T07:10:11.253Z,92.14
2019-02-23T07:11:11.332Z,92.05
2019-02-23T07:12:11.418Z,92.24
2019-02-23T07:13:11.502Z,91.58
2019-02-23T07:14:11.591Z,91.67
2019-02-23T07:15:11.683Z,91.77
2019-02-23T07:16:11.763Z,91.67
2019-02-23T07:17:11.844Z,91.39
2019-02-23T07:18:11.926Z,91.86
2019-02-23T07:19:12.013Z,91.48
2019-02-23T07:20:12.101Z,91.48
2019-02-23T07:21:12.186Z,91.24
2019-02-23T07:22:15.448Z,91.20
2019-02-23T07:23:12.423Z,90.72
2019-02-23T07:24:12.442Z,90.82
2019-02-23T07:25:12.526Z,90.67
2019-02-23T07:26:12.618Z,90.48
2019-02-23T07:27:12.703Z,90.67
2019-02-23T07:28:12.782Z,90.39
2019-02-23T07:29:12.973Z,90.39
2019-02-23T07:30:13.111Z,90.39
2019-02-23T07:31:13.124Z,90.01
2019-02-23T07:32:13.211Z,89.92
2019-02-23T07:33:13.296Z,89.63
2019-02-23T07:34:13.383Z,89.92
2019-02-23T07:35:13.465Z,90.01
2019-02-23T07:36:13.560Z,90.01
2019-02-23T07:37:13.646Z,89.25
2019-02-23T07:38:13.728Z,89.44
2019-02-23T07:39:13.849Z,89.82
2019-02-23T07:40:13.934Z,89.54
2019-02-23T07:41:14.020Z,89.54
2019-02-23T07:42:14.107Z,89.25
2019-02-23T07:43:14.193Z,89.25
2019-02-23T07:44:14.278Z,88.97
2019-02-23T07:45:14.364Z,88.78
2019-02-23T07:46:14.459Z,88.59
2019-02-23T07:47:14.543Z,88.87
2019-02-23T07:48:15.490Z,88.59
2019-02-23T07:49:14.718Z,88.82
2019-02-23T07:50:14.797Z,88.82
2019-02-23T07:51:14.882Z,88.82
2019-02-23T07:52:25.688Z,88.92
2019-02-23T07:53:15.050Z,89.11
2019-02-23T07:54:15.137Z,89.01
2019-02-23T07:55:15.232Z,88.45
2019-02-23T07:56:15.348Z,88.35
2019-02-23T07:57:15.435Z,88.35
2019-02-23T07:58:15.523Z,88.45
2019-02-23T07:59:15.610Z,88.17
2019-02-23T08:00:15.697Z,88.17
2019-02-23T08:01:15.786Z,88.07
2019-02-23T08:02:15.891Z,87.78
2019-02-23T08:03:15.982Z,87.88
2019-02-23T08:04:16.068Z,87.59
2019-02-23T08:05:16.154Z,87.69
2019-02-23T08:06:16.244Z,87.50
2019-02-23T08:07:16.328Z,87.12
2019-02-23T08:08:16.413Z,87.31
2019-02-23T08:09:16.501Z,87.45
2019-02-23T08:10:16.591Z,87.16
2019-02-23T08:11:16.672Z,87.35
2019-02-23T08:12:16.760Z,86.88
2019-02-23T08:13:16.839Z,86.88
2019-02-23T08:14:16.922Z,86.60
2019-02-23T08:15:17.009Z,86.03
2019-02-23T08:16:17.098Z,85.74
2019-02-23T08:17:17.187Z,86.12
2019-02-23T08:18:17.275Z,86.31
2019-02-23T08:19:17.353Z,85.46
2019-02-23T08:20:17.436Z,84.80
2019-02-23T08:21:17.514Z,84.32
2019-02-23T08:22:17.595Z,84.99
2019-02-23T08:23:17.686Z,84.89
2019-02-23T08:24:17.774Z,84.89
2019-02-23T08:25:17.932Z,84.23
2019-02-23T08:26:17.945Z,84.42
2019-02-23T08:27:18.032Z,83.94
2019-02-23T08:28:18.122Z,84.51
2019-02-23T08:29:18.218Z,83.85
2019-02-23T08:30:18.297Z,83.94
2019-02-23T08:31:18.395Z,84.32
2019-02-23T08:32:18.477Z,84.32
2019-02-23T08:33:18.565Z,84.13
2019-02-23T08:34:18.655Z,83.56
2019-02-23T08:35:18.744Z,83.18
2019-02-23T08:36:18.835Z,83.00
2019-02-23T08:37:18.922Z,83.23
2019-02-23T08:38:19.011Z,82.75
2019-02-23T08:39:19.104Z,82.33
2019-02-23T08:40:19.190Z,82.56
2019-02-23T08:41:19.281Z,82.66
2019-02-23T08:42:19.364Z,82.66
2019-02-23T08:43:20.825Z,82.85
2019-02-23T08:44:19.543Z,82.14
2019-02-23T08:45:19.636Z,82.66
2019-02-23T08:46:19.720Z,82.52
2019-02-23T08:47:19.808Z,82.56
2019-02-23T08:48:19.907Z,82.28
2019-02-23T08:49:19.985Z,81.99
2019-02-23T08:50:20.070Z,81.52
2019-02-23T08:51:20.167Z,81.43
2019-02-23T08:52:20.250Z,81.33
2019-02-23T08:53:20.334Z,80.86
2019-02-23T08:54:20.422Z,80.86
2019-02-23T08:55:20.512Z,80.38
2019-02-23T08:56:20.600Z,80.38
2019-02-23T08:57:20.686Z,79.15
2019-02-23T08:58:20.778Z,79.34
2019-02-23T08:59:20.868Z,79.15
2019-02-23T09:00:20.959Z,78.96
2019-02-23T09:01:21.045Z,78.11
2019-02-23T09:02:21.134Z,77.92
2019-02-23T09:03:21.221Z,78.05
2019-02-23T09:04:21.309Z,77.64
2019-02-23T09:05:21.397Z,77.67
2019-02-23T09:06:21.492Z,77.39
2019-02-23T09:07:21.574Z,77.20
2019-02-23T09:08:21.664Z,77.11
2019-02-23T09:09:21.753Z,76.73
2019-02-23T09:10:21.841Z,77.11
2019-02-23T09:11:21.925Z,76.73
2019-02-23T09:12:22.017Z,76.44
2019-02-23T09:13:22.104Z,76.34
2019-02-23T09:14:22.194Z,76.25
2019-02-23T09:15:22.473Z,76.15
2019-02-23T09:16:22.372Z,76.15
2019-02-23T09:17:22.459Z,75.59
2019-02-23T09:18:22.553Z,75.40
2019-02-23T09:19:22.634Z,74.92
2019-02-23T09:20:29.211Z,74.35
2019-02-23T09:21:22.820Z,74.30
2019-02-23T09:22:22.909Z,73.72
2019-02-23T09:23:23.000Z,73.69
2019-02-23T09:24:23.094Z,73.72
2019-02-23T09:25:23.183Z,73.25
2019-02-23T09:26:23.269Z,73.69
2019-02-23T09:27:23.363Z,73.44
2019-02-23T09:28:23.442Z,73.25
2019-02-23T09:29:23.715Z,73.35
2019-02-23T09:30:23.587Z,72.88
2019-02-23T09:31:23.676Z,72.88
2019-02-23T09:32:23.762Z,72.02
2019-02-23T09:33:23.850Z,71.45
2019-02-23T09:34:23.940Z,70.88
2019-02-23T09:35:24.031Z,70.69
2019-02-23T09:36:24.119Z,71.07
2019-02-23T09:37:24.208Z,70.88
2019-02-23T09:38:24.296Z,70.88
2019-02-23T09:39:24.389Z,70.59
2019-02-23T09:40:24.476Z,70.12
2019-02-23T09:41:24.567Z,70.03
2019-02-23T09:42:24.655Z,69.55
2019-02-23T09:43:24.742Z,68.98
2019-02-23T09:44:24.832Z,68.41
2019-02-23T09:45:24.924Z,68.16
2019-02-23T09:46:25.013Z,67.69
2019-02-23T09:47:25.100Z,67.79
2019-02-23T09:48:25.189Z,67.02
2019-02-23T09:49:25.287Z,66.33
2019-02-23T09:50:25.369Z,66.46
2019-02-23T09:51:25.458Z,66.36
2019-02-23T09:52:25.548Z,66.46
2019-02-23T09:53:25.638Z,66.27
2019-02-23T09:54:25.724Z,66.36
2019-02-23T09:55:25.831Z,65.98
2019-02-23T09:56:25.921Z,66.17
2019-02-23T09:57:26.008Z,66.08
2019-02-23T09:58:26.102Z,65.50
2019-02-23T09:59:26.191Z,65.79
2019-02-23T10:00:26.281Z,65.60
2019-02-23T10:01:26.367Z,65.79
2019-02-23T10:02:26.456Z,65.06
2019-02-23T10:03:26.545Z,64.84
2019-02-23T10:04:26.628Z,65.22
2019-02-23T10:05:26.718Z,64.75
2019-02-23T10:06:26.806Z,65.25
2019-02-23T10:07:26.896Z,64.59
2019-02-23T10:08:26.986Z,64.69
2019-02-23T10:09:27.076Z,64.97
2019-02-23T10:10:27.168Z,65.06
2019-02-23T10:11:27.254Z,65.35
2019-02-23T10:12:27.345Z,64.49
2019-02-23T10:13:27.437Z,64.69
2019-02-23T10:14:27.525Z,65.44
2019-02-23T10:15:27.616Z,64.49
2019-02-23T10:16:27.726Z,64.02
2019-02-23T10:17:27.817Z,63.54
2019-02-23T10:18:27.907Z,63.73
2019-02-23T10:19:27.995Z,64.21
2019-02-23T10:20:28.090Z,64.11
2019-02-23T10:21:28.182Z,63.54
2019-02-23T10:22:39.414Z,63.54
2019-02-23T10:23:28.408Z,62.97
2019-02-23T10:24:28.500Z,62.72
2019-02-23T10:25:28.587Z,62.12
2019-02-23T10:26:28.674Z,62.40
2019-02-23T10:27:28.765Z,62.72
2019-02-23T10:28:28.852Z,62.24
2019-02-23T10:29:28.939Z,62.05
2019-02-23T10:30:29.032Z,61.48
2019-02-23T10:31:29.119Z,61.58
2019-02-23T10:32:29.211Z,61.68
2019-02-23T10:33:29.300Z,61.39
2019-02-23T10:34:29.389Z,61.20
2019-02-23T10:35:29.483Z,60.53
2019-02-23T10:36:29.572Z,60.53
2019-02-23T10:37:29.668Z,60.16
2019-02-23T10:38:29.747Z,60.06
2019-02-23T10:39:29.844Z,59.68
2019-02-23T10:40:29.935Z,58.85
2019-02-23T10:41:30.028Z,59.01
2019-02-23T10:42:30.117Z,58.06
2019-02-23T10:43:30.204Z,58.09
2019-02-23T10:44:30.316Z,57.78
2019-02-23T10:45:30.397Z,59.05
2019-02-23T10:46:30.485Z,59.05
2019-02-23T10:47:30.575Z,58.73
2019-02-23T10:48:30.663Z,60.16
2019-02-23T10:49:30.754Z,59.96
2019-02-23T10:50:30.842Z,60.18
2019-02-23T10:51:30.932Z,58.76
2019-02-23T10:52:31.021Z,59.33
2019-02-23T10:53:33.049Z,58.57
2019-02-23T10:54:31.207Z,57.81
2019-02-23T10:55:31.294Z,58.09
2019-02-23T10:56:31.380Z,57.62
2019-02-23T10:57:31.466Z,57.24
2019-02-23T10:58:31.553Z,57.04
2019-02-23T10:59:31.649Z,56.67
2019-02-23T11:00:31.735Z,56.67
2019-02-23T11:01:31.825Z,56.67
2019-02-23T11:02:31.915Z,55.71
2019-02-23T11:03:32.055Z,56.03
2019-02-23T11:04:32.089Z,55.27
2019-02-23T11:05:32.181Z,55.24
2019-02-23T11:06:32.273Z,55.65
2019-02-23T11:07:32.363Z,54.22
2019-02-23T11:08:32.455Z,53.84
2019-02-23T11:09:32.563Z,53.84
2019-02-23T11:10:32.654Z,54.13
2019-02-23T11:11:32.744Z,54.69
2019-02-23T11:12:32.836Z,54.60
2019-02-23T11:13:32.926Z,54.13
2019-02-23T11:14:33.017Z,54.03
2019-02-23T11:15:33.116Z,54.41
2019-02-23T11:16:33.198Z,54.03
2019-02-23T11:17:33.286Z,54.41
2019-02-23T11:18:33.373Z,54.98
2019-02-23T11:19:33.465Z,55.65
2019-02-23T11:20:33.555Z,55.46
2019-02-23T11:21:33.648Z,55.08
2019-02-23T11:22:33.730Z,55.01
2019-02-23T11:23:43.458Z,55.27
2019-02-23T11:24:33.908Z,54.72
2019-02-23T11:25:33.999Z,54.53
2019-02-23T11:26:34.090Z,55.10
2019-02-23T11:27:34.184Z,55.29
2019-02-23T11:28:34.272Z,55.29
2019-02-23T11:29:34.363Z,55.01
2019-02-23T11:30:34.457Z,54.44
2019-02-23T11:31:34.550Z,54.63
2019-02-23T11:32:34.644Z,55.29
2019-02-23T11:33:34.726Z,54.72
2019-02-23T11:34:34.825Z,55.01
2019-02-23T11:35:34.907Z,55.29
2019-02-23T11:36:35.001Z,55.58
2019-02-23T11:37:35.092Z,56.15
2019-02-23T11:38:35.184Z,55.58
2019-02-23T11:39:35.272Z,55.01
2019-02-23T11:40:35.365Z,54.63
2019-02-23T11:41:35.446Z,55.10
2019-02-23T11:42:35.544Z,55.29
2019-02-23T11:43:35.637Z,55.10
2019-02-23T11:44:35.729Z,54.94
2019-02-23T11:45:35.822Z,55.32
2019-02-23T11:46:35.908Z,55.22
2019-02-23T11:47:36.000Z,54.35
2019-02-23T11:48:36.094Z,54.85
2019-02-23T11:49:36.182Z,54.75
2019-02-23T11:50:36.273Z,54.37
2019-02-23T11:51:36.376Z,54.08
2019-02-23T11:52:36.460Z,54.37
2019-02-23T11:53:36.553Z,53.89
2019-02-23T11:54:36.648Z,53.52
2019-02-23T11:55:36.735Z,53.52
2019-02-23T11:56:36.827Z,54.27
2019-02-23T11:57:36.924Z,54.37
2019-02-23T11:58:37.016Z,53.89
2019-02-23T11:59:37.115Z,53.23
2019-02-23T12:00:37.193Z,53.13
2019-02-23T12:01:37.276Z,52.75
2019-02-23T12:02:37.368Z,52.66
2019-02-23T12:03:37.461Z,52.18
2019-02-23T12:04:37.553Z,51.70
2019-02-23T12:05:37.642Z,51.99
2019-02-23T12:06:37.737Z,51.70
2019-02-23T12:07:37.828Z,52.66
2019-02-23T12:08:37.922Z,52.75
2019-02-23T12:09:38.018Z,52.30
2019-02-23T12:10:38.111Z,52.40
2019-02-23T12:11:38.196Z,52.30
2019-02-23T12:12:38.293Z,51.80
2019-02-23T12:13:38.387Z,52.30
2019-02-23T12:14:38.497Z,52.01
2019-02-23T12:15:38.591Z,52.28
2019-02-23T12:16:38.683Z,51.82
2019-02-23T12:17:39.757Z,51.70
2019-02-23T12:18:39.026Z,51.89
2019-02-23T12:19:39.262Z,52.47
2019-02-23T12:20:39.060Z,52.37
2019-02-23T12:21:39.156Z,52.75
2019-02-23T12:22:39.432Z,52.56
2019-02-23T12:23:39.344Z,52.84
2019-02-23T12:24:39.437Z,52.66
2019-02-23T12:25:39.527Z,52.94
2019-02-23T12:26:39.617Z,53.16
2019-02-23T12:27:39.713Z,52.56
2019-02-23T12:28:39.801Z,52.09
2019-02-23T12:29:39.896Z,51.23
2019-02-23T12:30:39.988Z,51.04
2019-02-23T12:31:40.080Z,51.04
2019-02-23T12:32:40.180Z,51.06
2019-02-23T12:33:40.270Z,50.49
2019-02-23T12:34:40.355Z,50.21
2019-02-23T12:35:40.447Z,50.21
2019-02-23T12:36:40.542Z,50.11
2019-02-23T12:37:40.632Z,50.21
2019-02-23T12:38:40.726Z,50.21
2019-02-23T12:39:40.820Z,50.21
2019-02-23T12:40:40.910Z,50.30
2019-02-23T12:41:41.007Z,50.40
2019-02-23T12:42:41.097Z,49.16
2019-02-23T12:43:41.191Z,49.35
2019-02-23T12:44:41.280Z,49.54
2019-02-23T12:45:41.373Z,50.59
2019-02-23T12:46:41.466Z,50.97
2019-02-23T12:47:41.557Z,50.59
2019-02-23T12:48:41.655Z,50.30
2019-02-23T12:49:41.763Z,50.52
2019-02-23T12:50:41.853Z,50.23
2019-02-23T12:51:41.941Z,49.76
2019-02-23T12:52:42.040Z,49.95
2019-02-23T12:53:42.132Z,49.95
2019-02-23T12:54:42.222Z,49.66
2019-02-23T12:55:42.315Z,49.08